createdAt,value
2023-04-07T00:00:08.701Z,12.50
2023-04-07T00:02:38.362Z,12.40
2023-04-07T00:05:07.472Z,12.50
2023-04-07T00:07:42.010Z,12.40
2023-04-07T00:10:13.906Z,12.40
2023-04-07T00:12:44.722Z,12.40
2023-04-07T00:15:13.599Z,12.50
2023-04-07T00:17:48.554Z,12.50
2023-04-07T00:20:15.542Z,12.40
2023-04-07T00:22:42.727Z,12.40
2023-04-07T00:25:12.049Z,12.40
2023-04-07T00:27:38.665Z,12.40
2023-04-07T00:30:09.416Z,12.40
2023-04-07T00:32:38.835Z,12.40
2023-04-07T00:35:13.329Z,12.40
2023-04-07T00:37:44.677Z,12.40
2023-04-07T00:40:17.517Z,12.40
2023-04-07T00:42:48.141Z,12.40
2023-04-07T00:45:14.750Z,12.40
2023-04-07T00:47:41.536Z,12.40
2023-04-07T00:50:10.787Z,12.40
2023-04-07T00:52:37.620Z,12.40
2023-04-07T00:55:04.411Z,12.40
2023-04-07T00:57:31.052Z,12.40
2023-04-07T01:00:02.651Z,12.40
2023-04-07T01:02:50.380Z,12.40
2023-04-07T01:05:31.460Z,12.40
2023-04-07T01:08:14.048Z,12.40
2023-04-07T01:10:45.794Z,12.40
2023-04-07T01:13:27.930Z,12.40
2023-04-07T01:16:14.717Z,12.40
2023-04-07T01:18:51.558Z,12.40
2023-04-07T01:21:22.707Z,12.40
2023-04-07T01:23:52.084Z,12.40
2023-04-07T01:26:33.522Z,12.40
2023-04-07T01:29:31.257Z,12.30
2023-04-07T01:32:04.433Z,12.40
2023-04-07T01:34:32.884Z,12.30
2023-04-07T01:37:03.619Z,12.30
2023-04-07T01:39:31.873Z,12.30
2023-04-07T01:42:02.387Z,12.30
2023-04-07T01:44:29.374Z,12.30
2023-04-07T01:46:59.344Z,12.30
2023-04-07T01:49:29.993Z,12.30
2023-04-07T01:52:06.373Z,12.30
2023-04-07T01:54:33.545Z,12.30
2023-04-07T01:57:08.810Z,12.20
2023-04-07T01:59:35.542Z,12.30
2023-04-07T02:02:04.034Z,12.20
2023-04-07T02:04:57.904Z,12.20
2023-04-07T02:07:42.919Z,12.20
2023-04-07T02:10:14.231Z,12.20
2023-04-07T02:12:43.971Z,12.20
2023-04-07T02:15:16.169Z,12.20
2023-04-07T02:17:47.536Z,12.10
2023-04-07T02:20:15.402Z,12.10
2023-04-07T02:22:44.562Z,12.10
2023-04-07T02:25:25.605Z,12.10
2023-04-07T02:27:56.750Z,12.10
2023-04-07T02:30:29.195Z,12.10
2023-04-07T02:32:59.577Z,12.10
2023-04-07T02:35:26.314Z,12.10
2023-04-07T02:37:54.740Z,12.10
2023-04-07T02:40:21.454Z,12.10
2023-04-07T02:42:50.305Z,12.10
2023-04-07T02:45:18.916Z,12.10
2023-04-07T02:47:46.544Z,12.10
2023-04-07T02:50:13.373Z,12.10
2023-04-07T02:52:42.526Z,12.00
2023-04-07T02:55:14.537Z,12.00
2023-04-07T02:57:46.896Z,12.00
2023-04-07T03:00:37.540Z,12.00
2023-04-07T03:03:11.306Z,12.00
2023-04-07T03:05:41.102Z,12.00
2023-04-07T03:08:14.441Z,12.00
2023-04-07T03:10:46.501Z,12.00
2023-04-07T03:13:20.306Z,12.00
2023-04-07T03:16:04.582Z,12.00
2023-04-07T03:18:41.426Z,12.00
2023-04-07T03:21:11.477Z,12.00
2023-04-07T03:23:41.666Z,12.00
2023-04-07T03:26:12.666Z,12.00
2023-04-07T03:28:42.553Z,12.00
2023-04-07T03:31:09.307Z,12.00
2023-04-07T03:33:38.106Z,12.00
2023-04-07T03:36:05.197Z,12.10
2023-04-07T03:38:32.244Z,12.00
2023-04-07T03:41:03.214Z,12.10
2023-04-07T03:43:31.982Z,12.00
2023-04-07T03:45:58.699Z,12.00
2023-04-07T03:48:29.280Z,12.00
2023-04-07T03:51:02.430Z,12.00
2023-04-07T03:53:32.120Z,12.00
2023-04-07T03:56:02.086Z,11.90
2023-04-07T03:58:55.369Z,11.90
2023-04-07T04:01:45.282Z,11.90
2023-04-07T04:04:15.761Z,11.90
2023-04-07T04:06:45.098Z,11.90
2023-04-07T04:09:34.253Z,11.80
2023-04-07T04:12:07.268Z,11.90
2023-04-07T04:14:41.673Z,11.90
2023-04-07T04:17:12.293Z,11.80
2023-04-07T04:19:44.349Z,11.80
2023-04-07T04:22:25.279Z,11.80
2023-04-07T04:24:58.604Z,11.80
2023-04-07T04:27:29.792Z,11.70
2023-04-07T04:30:04.203Z,11.70
2023-04-07T04:32:36.502Z,11.70
2023-04-07T04:35:03.403Z,11.70
2023-04-07T04:37:33.228Z,11.70
2023-04-07T04:40:03.027Z,11.70
2023-04-07T04:42:36.563Z,11.60
2023-04-07T04:45:07.082Z,11.60
2023-04-07T04:47:34.675Z,11.60
2023-04-07T04:50:05.723Z,11.60
2023-04-07T04:52:34.568Z,11.60
2023-04-07T04:55:01.589Z,11.60
2023-04-07T04:57:31.352Z,11.60
2023-04-07T05:00:00.428Z,11.60
2023-04-07T05:02:27.570Z,11.60
2023-04-07T05:04:54.420Z,11.60
2023-04-07T05:07:25.974Z,11.60
2023-04-07T05:09:55.355Z,11.60
2023-04-07T05:12:32.740Z,11.60
2023-04-07T05:15:01.716Z,11.60
2023-04-07T05:17:28.358Z,11.60
2023-04-07T05:19:59.434Z,11.60
2023-04-07T05:22:38.782Z,11.60
2023-04-07T05:25:10.709Z,11.60
2023-04-07T05:27:39.074Z,11.60
2023-04-07T05:30:17.937Z,11.60
2023-04-07T05:32:47.136Z,11.60
2023-04-07T05:35:24.782Z,11.60
2023-04-07T05:37:58.466Z,11.60
2023-04-07T05:40:25.274Z,11.60
2023-04-07T05:42:51.907Z,11.60
2023-04-07T05:45:21.360Z,11.70
2023-04-07T05:47:51.231Z,11.60
2023-04-07T05:50:25.384Z,11.70
2023-04-07T05:52:54.914Z,11.70
2023-04-07T05:55:24.518Z,11.70
2023-04-07T05:57:52.527Z,11.70
2023-04-07T06:00:25.043Z,11.70
2023-04-07T06:03:04.905Z,11.70
2023-04-07T06:05:44.431Z,11.80
2023-04-07T06:08:13.789Z,11.70
2023-04-07T06:10:41.561Z,11.80
2023-04-07T06:13:10.713Z,11.80
2023-04-07T06:15:37.331Z,11.80
2023-04-07T06:18:10.983Z,11.80
2023-04-07T06:20:41.803Z,11.80
2023-04-07T06:23:08.629Z,11.80
2023-04-07T06:25:35.518Z,11.80
2023-04-07T06:28:02.221Z,11.80
2023-04-07T06:30:31.144Z,11.90
2023-04-07T06:33:01.086Z,11.90
2023-04-07T06:35:29.414Z,11.90
2023-04-07T06:37:58.793Z,12.00
2023-04-07T06:40:25.390Z,12.00
2023-04-07T06:42:54.396Z,12.00
2023-04-07T06:45:30.275Z,12.00
2023-04-07T06:47:56.909Z,12.10
2023-04-07T06:50:23.545Z,12.10
2023-04-07T06:52:50.223Z,12.10
2023-04-07T06:55:16.917Z,12.10
2023-04-07T06:57:43.556Z,12.20
2023-04-07T07:00:10.786Z,12.20
2023-04-07T07:02:37.762Z,12.20
2023-04-07T07:05:04.848Z,12.20
2023-04-07T07:07:31.546Z,12.20
2023-04-07T07:09:58.147Z,12.20
2023-04-07T07:12:25.018Z,12.20
2023-04-07T07:14:51.577Z,12.20
2023-04-07T07:17:18.164Z,12.30
2023-04-07T07:19:44.736Z,12.30
2023-04-07T07:22:11.387Z,12.30
2023-04-07T07:24:37.964Z,12.30
2023-04-07T07:27:04.545Z,12.30
2023-04-07T07:29:32.449Z,12.40
2023-04-07T07:31:59.058Z,12.40
2023-04-07T07:34:27.740Z,12.50
2023-04-07T07:36:54.300Z,12.50
2023-04-07T07:39:21.061Z,12.50
2023-04-07T07:41:47.948Z,12.60
2023-04-07T07:44:14.509Z,12.60
2023-04-07T07:46:41.132Z,12.70
2023-04-07T07:49:10.288Z,12.70
2023-04-07T07:51:36.954Z,12.80
2023-04-07T07:54:03.711Z,12.80
2023-04-07T07:56:30.339Z,12.90
2023-04-07T07:58:58.279Z,12.90
2023-04-07T08:01:25.094Z,12.90
2023-04-07T08:03:51.983Z,13.00
2023-04-07T08:06:19.074Z,13.00
2023-04-07T08:08:46.010Z,13.00
2023-04-07T08:11:12.820Z,13.00
2023-04-07T08:13:39.831Z,13.00
2023-04-07T08:16:07.031Z,13.00
2023-04-07T08:18:33.627Z,13.00
2023-04-07T08:21:00.214Z,13.00
2023-04-07T08:23:26.960Z,13.00
2023-04-07T08:25:53.501Z,13.00
2023-04-07T08:28:21.037Z,13.00
2023-04-07T08:30:47.594Z,13.00
2023-04-07T08:33:14.214Z,13.00
2023-04-07T08:35:40.992Z,13.00
2023-04-07T08:38:09.382Z,13.00
2023-04-07T08:40:36.029Z,12.90
2023-04-07T08:43:11.814Z,12.90
2023-04-07T08:45:40.603Z,12.90
2023-04-07T08:48:17.842Z,12.90
2023-04-07T08:50:45.914Z,12.90
2023-04-07T08:53:16.363Z,12.90
2023-04-07T08:55:42.926Z,12.90
2023-04-07T08:58:12.406Z,12.90
2023-04-07T09:00:45.742Z,12.90
2023-04-07T09:03:12.861Z,12.90
2023-04-07T09:05:39.742Z,12.90
2023-04-07T09:08:06.845Z,12.90
2023-04-07T09:10:33.472Z,13.00
2023-04-07T09:13:00.153Z,13.00
2023-04-07T09:15:31.747Z,13.00
2023-04-07T09:17:59.189Z,13.10
2023-04-07T09:20:26.084Z,13.00
2023-04-07T09:22:52.649Z,13.10
2023-04-07T09:25:26.174Z,13.00
2023-04-07T09:28:02.762Z,13.00
2023-04-07T09:30:31.109Z,13.00
2023-04-07T09:33:04.296Z,12.90
2023-04-07T09:35:31.149Z,12.90
2023-04-07T09:38:10.942Z,12.90
2023-04-07T09:40:37.938Z,12.90
2023-04-07T09:43:06.236Z,12.90
2023-04-07T09:45:36.161Z,12.90
2023-04-07T09:48:08.507Z,12.90
2023-04-07T09:50:38.989Z,12.90
2023-04-07T09:53:05.743Z,12.90
2023-04-07T09:55:33.599Z,13.00
2023-04-07T09:58:01.505Z,12.90
2023-04-07T10:00:28.122Z,12.90
2023-04-07T10:02:58.970Z,12.90
2023-04-07T10:05:25.920Z,12.90
2023-04-07T10:07:54.355Z,12.90
2023-04-07T10:10:23.696Z,12.90
2023-04-07T10:12:53.312Z,12.90
2023-04-07T10:15:20.717Z,12.90
2023-04-07T10:17:48.477Z,12.90
2023-04-07T10:20:20.688Z,12.90
2023-04-07T10:22:51.173Z,12.90
2023-04-07T10:25:21.640Z,12.90
2023-04-07T10:28:00.496Z,12.90
2023-04-07T10:30:34.371Z,12.90
2023-04-07T10:33:01.123Z,12.90
2023-04-07T10:35:29.043Z,13.00
2023-04-07T10:38:08.555Z,13.00
2023-04-07T10:40:36.768Z,13.00
2023-04-07T10:43:04.806Z,13.00
2023-04-07T10:45:59.688Z,13.10
2023-04-07T10:48:28.482Z,13.10
2023-04-07T10:51:08.252Z,13.10
2023-04-07T10:53:35.193Z,13.20
2023-04-07T10:56:02.402Z,13.30
2023-04-07T10:58:30.583Z,13.40
2023-04-07T11:00:57.172Z,13.60
2023-04-07T11:03:24.981Z,13.70
2023-04-07T11:05:51.685Z,13.80
2023-04-07T11:08:39.771Z,13.90
2023-04-07T11:11:09.381Z,14.10
2023-04-07T11:13:43.055Z,14.10
2023-04-07T11:16:10.571Z,14.20
2023-04-07T11:18:38.361Z,14.30
2023-04-07T11:21:06.295Z,14.40
2023-04-07T11:23:41.321Z,14.40
2023-04-07T11:26:10.595Z,14.40
2023-04-07T11:28:51.289Z,14.40
2023-04-07T11:31:31.509Z,14.40
2023-04-07T11:34:01.754Z,14.40
2023-04-07T11:36:31.098Z,14.40
2023-04-07T11:38:58.352Z,14.40
2023-04-07T11:41:27.448Z,14.40
2023-04-07T11:44:08.050Z,14.40
2023-04-07T11:46:35.280Z,14.40
2023-04-07T11:49:13.223Z,14.40
2023-04-07T11:51:41.158Z,14.30
2023-04-07T11:54:07.848Z,14.30
2023-04-07T11:56:46.704Z,14.30
2023-04-07T11:59:25.114Z,14.30
2023-04-07T12:01:55.336Z,14.20
2023-04-07T12:04:24.062Z,14.20
2023-04-07T12:06:51.320Z,14.10
2023-04-07T12:09:36.053Z,14.10
2023-04-07T12:12:07.567Z,14.10
2023-04-07T12:14:35.114Z,14.00
2023-04-07T12:17:03.688Z,14.00
2023-04-07T12:19:33.479Z,14.00
2023-04-07T12:22:00.490Z,14.00
2023-04-07T12:24:27.195Z,14.10
2023-04-07T12:26:53.809Z,14.10
2023-04-07T12:29:20.522Z,14.10
2023-04-07T12:31:50.182Z,14.10
2023-04-07T12:34:17.827Z,14.20
2023-04-07T12:36:44.557Z,14.20
2023-04-07T12:39:11.413Z,14.20
2023-04-07T12:41:38.613Z,14.20
2023-04-07T12:44:05.808Z,14.20
2023-04-07T12:46:32.450Z,14.20
2023-04-07T12:48:59.245Z,14.10
2023-04-07T12:51:26.957Z,14.10
2023-04-07T12:53:54.098Z,14.10
2023-04-07T12:56:22.212Z,14.00
2023-04-07T12:58:48.889Z,14.00
2023-04-07T13:01:16.385Z,14.00
2023-04-07T13:03:43.139Z,14.00
2023-04-07T13:06:10.716Z,14.00
2023-04-07T13:08:37.489Z,13.90
2023-04-07T13:11:04.324Z,13.90
2023-04-07T13:13:31.457Z,13.90
2023-04-07T13:15:58.049Z,13.90
2023-04-07T13:18:25.223Z,14.00
2023-04-07T13:21:06.271Z,13.90
2023-04-07T13:23:49.474Z,13.90
2023-04-07T13:26:16.090Z,13.90
2023-04-07T13:28:45.725Z,13.90
2023-04-07T13:31:15.671Z,13.90
2023-04-07T13:33:42.406Z,13.90
2023-04-07T13:36:09.054Z,13.90
2023-04-07T13:38:36.493Z,13.90
2023-04-07T13:41:03.874Z,14.00
2023-04-07T13:43:30.515Z,14.00
2023-04-07T13:45:57.141Z,14.00
2023-04-07T13:48:23.803Z,14.10
2023-04-07T13:50:50.731Z,14.10
2023-04-07T13:53:19.008Z,14.10
2023-04-07T13:55:45.977Z,14.10
2023-04-07T13:58:12.754Z,14.20
2023-04-07T14:00:40.157Z,14.20
2023-04-07T14:03:07.834Z,14.20
2023-04-07T14:05:35.658Z,14.20
2023-04-07T14:08:02.253Z,14.10
2023-04-07T14:10:29.197Z,14.20
2023-04-07T14:12:56.152Z,14.20
2023-04-07T14:15:22.846Z,14.20
2023-04-07T14:17:49.886Z,14.20
2023-04-07T14:20:16.651Z,14.20
2023-04-07T14:22:43.262Z,14.20
2023-04-07T14:25:11.332Z,14.20
2023-04-07T14:27:37.995Z,14.20
2023-04-07T14:30:05.166Z,14.20
2023-04-07T14:32:33.297Z,14.20
2023-04-07T14:35:01.103Z,14.20
2023-04-07T14:37:30.750Z,14.20
2023-04-07T14:42:29.472Z,14.30
2023-04-07T14:44:56.515Z,14.40
2023-04-07T14:47:23.386Z,14.50
2023-04-07T14:49:51.958Z,14.50
2023-04-07T14:52:21.458Z,14.60
2023-04-07T14:54:48.481Z,14.60
2023-04-07T14:57:16.258Z,14.70
2023-04-07T14:59:42.849Z,14.70
2023-04-07T15:02:09.434Z,14.70
2023-04-07T15:04:36.214Z,14.70
2023-04-07T15:07:03.237Z,14.70
2023-04-07T15:09:29.778Z,14.70
2023-04-07T15:11:56.434Z,14.60
2023-04-07T15:14:22.970Z,14.60
2023-04-07T15:16:51.800Z,14.50
2023-04-07T15:19:18.574Z,14.40
2023-04-07T15:21:45.442Z,14.40
2023-04-07T15:24:16.014Z,14.40
2023-04-07T15:26:43.115Z,14.30
2023-04-07T15:29:09.715Z,14.30
2023-04-07T15:31:36.311Z,14.30
2023-04-07T15:34:03.052Z,14.30
2023-04-07T15:36:29.684Z,14.30
2023-04-07T15:38:56.490Z,14.20
2023-04-07T15:41:23.323Z,14.20
2023-04-07T15:43:51.330Z,14.20
2023-04-07T15:46:17.894Z,14.20
2023-04-07T15:48:44.487Z,14.20
2023-04-07T15:51:11.049Z,14.20
2023-04-07T15:53:37.752Z,14.20
2023-04-07T15:56:04.458Z,14.10
2023-04-07T15:58:32.392Z,14.20
2023-04-07T16:00:59.938Z,14.10
2023-04-07T16:03:27.991Z,14.10
2023-04-07T16:05:55.054Z,14.10
2023-04-07T16:08:21.987Z,14.10
2023-04-07T16:10:48.546Z,14.10
2023-04-07T16:13:15.298Z,14.00
2023-04-07T16:15:42.144Z,14.00
2023-04-07T16:18:12.102Z,14.00
2023-04-07T16:20:38.782Z,14.00
2023-04-07T16:23:05.485Z,13.90
2023-04-07T16:25:32.117Z,13.90
2023-04-07T16:27:58.744Z,13.90
2023-04-07T16:30:25.531Z,13.80
2023-04-07T16:32:52.272Z,13.80
2023-04-07T16:35:19.032Z,13.80
2023-04-07T16:37:49.879Z,13.80
2023-04-07T16:40:16.688Z,13.70
2023-04-07T16:42:43.355Z,13.70
2023-04-07T16:45:10.448Z,13.70
2023-04-07T16:47:37.996Z,13.70
2023-04-07T16:50:05.196Z,13.60
2023-04-07T16:52:32.168Z,13.60
2023-04-07T16:55:01.646Z,13.70
2023-04-07T16:57:28.333Z,13.60
2023-04-07T16:59:54.904Z,13.60
2023-04-07T17:02:21.658Z,13.60
2023-04-07T17:04:52.643Z,13.60
2023-04-07T17:07:23.938Z,13.60
2023-04-07T17:09:50.725Z,13.60
2023-04-07T17:12:17.393Z,13.60
2023-04-07T17:14:43.941Z,13.60
2023-04-07T17:17:13.080Z,13.60
2023-04-07T17:19:39.647Z,13.50
2023-04-07T17:22:11.646Z,13.50
2023-04-07T17:24:39.441Z,13.50
2023-04-07T17:27:09.740Z,13.50
2023-04-07T17:29:38.883Z,13.50
2023-04-07T17:32:07.782Z,13.50
2023-04-07T17:34:34.370Z,13.50
2023-04-07T17:37:00.960Z,13.40
2023-04-07T17:39:27.609Z,13.40
2023-04-07T17:41:54.226Z,13.40
2023-04-07T17:44:21.255Z,13.40
2023-04-07T17:46:58.902Z,13.40
2023-04-07T17:49:26.679Z,13.40
2023-04-07T17:51:54.176Z,13.30
2023-04-07T17:54:20.800Z,13.30
2023-04-07T17:56:48.914Z,13.30
2023-04-07T17:59:18.593Z,13.30
2023-04-07T18:01:45.336Z,13.30
2023-04-07T18:04:14.593Z,13.30
2023-04-07T18:06:41.177Z,13.20
2023-04-07T18:09:12.688Z,13.20
2023-04-07T18:11:39.330Z,13.20
2023-04-07T18:14:05.889Z,13.20
2023-04-07T18:16:32.530Z,13.20
2023-04-07T18:19:00.331Z,13.20
2023-04-07T18:21:29.457Z,13.20
2023-04-07T18:23:58.278Z,13.20
2023-04-07T18:26:24.815Z,13.20
2023-04-07T18:28:51.377Z,13.10
2023-04-07T18:31:20.517Z,13.20
2023-04-07T18:33:49.588Z,13.20
2023-04-07T18:36:16.852Z,13.10
2023-04-07T18:38:46.128Z,13.10
2023-04-07T18:41:13.952Z,13.10
2023-04-07T18:43:48.278Z,13.10
2023-04-07T18:46:16.772Z,13.10
2023-04-07T18:48:44.292Z,13.10
2023-04-07T18:51:11.689Z,13.10
2023-04-07T18:53:40.896Z,13.10
2023-04-07T18:56:10.208Z,13.10
2023-04-07T18:58:43.828Z,13.10
2023-04-07T19:01:12.842Z,13.10
2023-04-07T19:03:40.693Z,13.10
2023-04-07T19:06:09.838Z,13.10
2023-04-07T19:08:37.867Z,13.10
2023-04-07T19:11:07.234Z,13.10
2023-04-07T19:13:33.875Z,13.10
2023-04-07T19:16:05.836Z,13.10
2023-04-07T19:18:37.316Z,13.10
2023-04-07T19:21:06.750Z,13.00
2023-04-07T19:23:35.943Z,13.00
2023-04-07T19:26:03.130Z,13.00
2023-04-07T19:28:31.154Z,13.00
2023-04-07T19:30:57.777Z,13.00
2023-04-07T19:33:26.664Z,13.00
2023-04-07T19:35:55.890Z,13.00
2023-04-07T19:38:24.551Z,13.00
2023-04-07T19:40:53.800Z,13.00
2023-04-07T19:43:22.770Z,13.00
2023-04-07T19:45:49.549Z,13.00
2023-04-07T19:48:17.394Z,13.00
2023-04-07T19:50:50.609Z,12.90
2023-04-07T19:53:17.803Z,12.90
2023-04-07T19:55:51.992Z,12.90
2023-04-07T19:58:20.909Z,12.90
2023-04-07T20:00:52.442Z,12.90
2023-04-07T20:03:22.661Z,13.00
2023-04-07T20:05:50.184Z,12.90
2023-04-07T20:08:16.768Z,12.90
2023-04-07T20:10:46.962Z,12.90
2023-04-07T20:13:14.795Z,12.90
2023-04-07T20:15:43.795Z,12.90
2023-04-07T20:18:11.081Z,12.90
2023-04-07T20:20:37.913Z,12.90
2023-04-07T20:23:06.902Z,12.90
2023-04-07T20:25:37.049Z,12.80
2023-04-07T20:28:06.047Z,12.90
2023-04-07T20:30:34.844Z,12.80
2023-04-07T20:33:06.421Z,12.80
2023-04-07T20:35:35.206Z,12.80
2023-04-07T20:38:04.275Z,12.80
2023-04-07T20:40:35.074Z,12.80
2023-04-07T20:43:01.774Z,12.80
2023-04-07T20:45:28.647Z,12.80
2023-04-07T20:47:55.575Z,12.80
2023-04-07T20:50:28.161Z,12.70
2023-04-07T20:52:54.746Z,12.80
2023-04-07T20:55:23.878Z,12.70
2023-04-07T20:57:55.755Z,12.70
2023-04-07T21:00:24.745Z,12.70
2023-04-07T21:02:52.907Z,12.70
2023-04-07T21:05:21.998Z,12.80
2023-04-07T21:07:52.877Z,12.70
2023-04-07T21:10:22.402Z,12.80
2023-04-07T21:12:57.565Z,12.70
2023-04-07T21:15:25.453Z,12.70
2023-04-07T21:17:54.548Z,12.70
2023-04-07T21:20:22.178Z,12.70
2023-04-07T21:22:48.779Z,12.70
2023-04-07T21:25:16.668Z,12.70
2023-04-07T21:27:45.611Z,12.80
2023-04-07T21:30:16.741Z,12.70
2023-04-07T21:32:45.826Z,12.70
2023-04-07T21:35:12.544Z,12.70
2023-04-07T21:37:39.109Z,12.70
2023-04-07T21:40:09.060Z,12.70
2023-04-07T21:42:38.254Z,12.70
2023-04-07T21:45:07.478Z,12.70
2023-04-07T21:47:36.518Z,12.70
2023-04-07T21:50:08.172Z,12.70
2023-04-07T21:52:42.463Z,12.70
2023-04-07T21:55:10.612Z,12.60
2023-04-07T21:57:39.456Z,12.60
2023-04-07T22:00:07.233Z,12.60
2023-04-07T22:02:41.474Z,12.60
2023-04-07T22:05:11.519Z,12.60
2023-04-07T22:07:38.334Z,12.60
2023-04-07T22:10:08.068Z,12.60
2023-04-07T22:12:34.683Z,12.60
2023-04-07T22:15:04.007Z,12.60
2023-04-07T22:17:30.974Z,12.60
2023-04-07T22:19:57.530Z,12.60
2023-04-07T22:22:24.150Z,12.60
2023-04-07T22:25:00.779Z,12.60
2023-04-07T22:27:29.473Z,12.50
2023-04-07T22:30:01.448Z,12.50
2023-04-07T22:32:32.723Z,12.50
2023-04-07T22:35:00.551Z,12.50
2023-04-07T22:37:27.267Z,12.50
2023-04-07T22:39:56.808Z,12.50
2023-04-07T22:42:23.399Z,12.50
2023-04-07T22:44:50.450Z,12.50
2023-04-07T22:47:19.276Z,12.50
2023-04-07T22:49:46.380Z,12.40
2023-04-07T22:52:13.502Z,12.40
2023-04-07T22:54:42.212Z,12.40
2023-04-07T22:57:14.738Z,12.40
2023-04-07T22:59:46.783Z,12.40
2023-04-07T23:02:13.444Z,12.40
2023-04-07T23:04:40.060Z,12.40
2023-04-07T23:07:07.214Z,12.40
2023-04-07T23:09:33.786Z,12.40
2023-04-07T23:12:02.490Z,12.40
2023-04-07T23:14:37.432Z,12.40
2023-04-07T23:17:04.000Z,12.40
2023-04-07T23:19:36.038Z,12.40
2023-04-07T23:22:10.307Z,12.40
2023-04-07T23:24:36.872Z,12.40
2023-04-07T23:27:05.666Z,12.40
2023-04-07T23:29:32.395Z,12.40
2023-04-07T23:31:58.973Z,12.40
2023-04-07T23:34:25.570Z,12.50
2023-04-07T23:36:52.786Z,12.50
2023-04-07T23:39:21.358Z,12.40
2023-04-07T23:41:52.414Z,12.50
2023-04-07T23:44:29.954Z,12.50
2023-04-07T23:46:56.699Z,12.50
2023-04-07T23:49:24.846Z,12.50
2023-04-07T23:51:54.670Z,12.50
2023-04-07T23:54:26.582Z,12.50
2023-04-07T23:56:57.000Z,12.50
2023-04-07T23:59:28.085Z,12.50
